Monticello, Iowa
Current Conditions -  °F | °C
As of 5:55 PM on Sunday 23 Nov 2014 (Local Time) from KMXO Reporting Station
Haze Haze  
Wind Chill: 48°   Ceiling: 300
Heat Index: 48°   Visibility: 4mi
Dew Point: 48°   Wind: 3mph
Humidity: 100%   Direction: 70°ENE
Pressure: 29.29"   Gusts: NA
Location:  42.24°N, 91.19°W
Report Text: KMXO 232355Z AUTO 07003KT 4SM BR OVC003 09/09 A2929 RMK AO2 P0001
Loading
Personal Weather Stations






























Interactive Weather Map New forecast layout! Learn more

10-Day Weather Forecast

Advertisements
Track Severe Weather on mobile